createdAt,value
2023-05-25T00:01:29.632Z,22.33
2023-05-25T00:03:55.970Z,20.93
2023-05-25T00:06:25.373Z,21.17
2023-05-25T00:08:54.688Z,18.83
2023-05-25T00:11:22.622Z,18.80
2023-05-25T00:13:48.958Z,20.13
2023-05-25T00:16:15.285Z,16.17
2023-05-25T00:18:42.652Z,16.97
2023-05-25T00:21:09.909Z,18.37
2023-05-25T00:23:36.965Z,22.27
2023-05-25T00:26:03.632Z,15.93
2023-05-25T00:28:30.163Z,12.47
2023-05-25T00:30:56.533Z,14.47
2023-05-25T00:33:22.966Z,14.87
2023-05-25T00:35:50.040Z,16.03
2023-05-25T00:38:17.292Z,17.10
2023-05-25T00:48:18.412Z,13.93
2023-05-25T00:50:45.154Z,16.13
2023-05-25T00:53:12.502Z,15.93
2023-05-25T00:55:40.932Z,18.40
2023-05-25T00:58:07.788Z,13.20
2023-05-25T01:00:35.520Z,17.30
2023-05-25T01:03:04.314Z,17.07
2023-05-25T01:05:31.593Z,16.70
2023-05-25T01:07:59.353Z,15.07
2023-05-25T01:10:26.052Z,13.90
2023-05-25T01:12:53.284Z,16.57
2023-05-25T01:15:20.295Z,16.27
2023-05-25T01:17:48.149Z,16.77
2023-05-25T01:20:15.002Z,14.93
2023-05-25T01:22:45.149Z,17.53
2023-05-25T01:25:14.787Z,12.27
2023-05-25T01:27:45.303Z,15.33
2023-05-25T01:30:14.663Z,14.43
2023-05-25T01:32:42.220Z,17.70
2023-05-25T01:35:09.049Z,18.27
2023-05-25T01:37:36.830Z,15.27
2023-05-25T01:40:04.928Z,14.00
2023-05-25T01:42:31.124Z,15.43
2023-05-25T01:44:58.226Z,12.27
2023-05-25T01:47:36.300Z,15.57
2023-05-25T01:50:06.320Z,16.03
2023-05-25T01:52:35.728Z,16.73
2023-05-25T01:55:06.271Z,18.63
2023-05-25T01:57:35.383Z,13.27
2023-05-25T02:00:02.543Z,13.17
2023-05-25T02:02:29.117Z,13.83
2023-05-25T02:04:55.493Z,12.93
2023-05-25T02:07:22.531Z,20.40
2023-05-25T02:09:48.858Z,17.90
2023-05-25T02:12:15.744Z,16.07
2023-05-25T02:14:42.332Z,15.63
2023-05-25T02:17:08.586Z,14.37
2023-05-25T02:19:35.203Z,15.40
2023-05-25T02:22:01.492Z,15.57
2023-05-25T02:24:27.838Z,17.47
2023-05-25T02:26:54.158Z,14.17
2023-05-25T02:29:21.121Z,19.60
2023-05-25T02:31:47.526Z,14.30
2023-05-25T02:34:14.716Z,15.63
2023-05-25T02:36:42.589Z,17.70
2023-05-25T02:39:10.171Z,13.50
2023-05-25T02:41:36.927Z,13.83
2023-05-25T02:44:03.274Z,14.77
2023-05-25T02:46:30.254Z,16.87
2023-05-25T02:48:56.910Z,14.63
2023-05-25T02:51:23.116Z,17.13
2023-05-25T02:53:49.390Z,18.23
2023-05-25T02:56:15.588Z,19.87
2023-05-25T02:58:42.047Z,15.57
2023-05-25T03:01:09.986Z,11.30
2023-05-25T03:03:36.977Z,15.37
2023-05-25T03:06:04.170Z,12.73
2023-05-25T03:08:30.699Z,19.63
2023-05-25T03:10:56.963Z,21.77
2023-05-25T03:13:23.264Z,17.23
2023-05-25T03:15:49.616Z,15.93
2023-05-25T03:18:16.134Z,16.57
2023-05-25T03:20:43.341Z,17.30
2023-05-25T03:23:09.760Z,18.63
2023-05-25T03:25:36.347Z,16.73
2023-05-25T03:28:02.653Z,19.73
2023-05-25T03:30:29.878Z,13.40
2023-05-25T03:32:56.137Z,15.53
2023-05-25T03:35:22.425Z,21.83
2023-05-25T03:37:49.423Z,21.00
2023-05-25T03:40:15.657Z,23.23
2023-05-25T03:42:41.927Z,17.57
2023-05-25T03:45:08.811Z,20.13
2023-05-25T03:47:35.362Z,18.17
2023-05-25T03:50:01.750Z,20.83
2023-05-25T03:52:28.093Z,16.33
2023-05-25T03:54:55.276Z,16.90
2023-05-25T03:57:21.725Z,16.33
2023-05-25T03:59:48.006Z,15.60
2023-05-25T04:02:14.243Z,18.87
2023-05-25T04:04:41.019Z,24.90
2023-05-25T04:07:07.556Z,20.70
2023-05-25T04:09:33.915Z,12.50
2023-05-25T04:12:01.783Z,11.73
2023-05-25T04:14:28.045Z,17.17
2023-05-25T04:16:54.280Z,12.73
2023-05-25T04:19:20.558Z,16.50
2023-05-25T04:21:46.799Z,14.90
2023-05-25T04:24:13.172Z,15.13
2023-05-25T04:26:39.700Z,13.57
2023-05-25T04:29:07.224Z,13.07
2023-05-25T04:31:33.482Z,13.73
2023-05-25T04:34:01.804Z,12.33
2023-05-25T04:36:28.118Z,14.47
2023-05-25T04:38:54.608Z,13.47
2023-05-25T04:41:20.807Z,16.37
2023-05-25T04:44:04.613Z,18.73
2023-05-25T04:46:36.460Z,18.27
2023-05-25T04:49:03.617Z,19.27
2023-05-25T04:51:29.932Z,25.40
2023-05-25T04:53:56.101Z,22.37
2023-05-25T04:56:24.818Z,17.77
2023-05-25T04:58:51.767Z,21.53
2023-05-25T05:01:19.261Z,20.20
2023-05-25T05:03:46.409Z,27.57
2023-05-25T05:06:12.794Z,21.60
2023-05-25T05:08:39.058Z,16.73
2023-05-25T05:11:05.615Z,22.83
2023-05-25T05:13:31.985Z,19.30
2023-05-25T05:15:58.274Z,17.87
2023-05-25T05:18:24.514Z,17.03
2023-05-25T05:20:51.529Z,21.67
2023-05-25T05:23:17.862Z,25.40
2023-05-25T05:25:45.670Z,26.40
2023-05-25T05:28:12.107Z,24.73
2023-05-25T05:30:40.707Z,21.43
2023-05-25T05:33:07.042Z,16.47
2023-05-25T05:35:33.515Z,18.70
2023-05-25T05:38:00.633Z,20.67
2023-05-25T05:40:27.098Z,22.93
2023-05-25T05:42:53.587Z,24.33
2023-05-25T05:45:20.049Z,17.70
2023-05-25T05:47:46.366Z,20.10
2023-05-25T05:50:12.586Z,22.43
2023-05-25T05:52:38.951Z,18.37
2023-05-25T05:55:06.951Z,19.67
2023-05-25T05:57:33.243Z,23.17
2023-05-25T05:59:59.483Z,18.97
2023-05-25T06:02:26.075Z,21.90
2023-05-25T06:04:52.385Z,20.87
2023-05-25T06:07:18.637Z,19.73
2023-05-25T06:09:44.998Z,17.47
2023-05-25T06:12:12.003Z,22.97
2023-05-25T06:14:38.228Z,21.73
2023-05-25T06:17:05.183Z,23.47
2023-05-25T06:19:31.515Z,16.60
2023-05-25T06:21:57.889Z,18.30
2023-05-25T06:24:24.248Z,20.53
2023-05-25T06:26:50.531Z,14.63
2023-05-25T06:29:17.566Z,25.73
2023-05-25T06:31:43.882Z,22.27
2023-05-25T06:34:10.343Z,20.53
2023-05-25T06:36:36.540Z,20.70
2023-05-25T06:39:02.803Z,23.40
2023-05-25T06:41:30.021Z,22.47
2023-05-25T06:43:56.419Z,18.20
2023-05-25T06:46:23.499Z,24.53
2023-05-25T06:48:50.105Z,18.83
2023-05-25T06:51:16.361Z,23.43
2023-05-25T06:53:43.020Z,19.47
2023-05-25T06:56:09.366Z,21.30
2023-05-25T06:58:35.633Z,21.33
2023-05-25T07:01:02.233Z,23.60
2023-05-25T07:03:29.490Z,25.80
2023-05-25T07:05:55.789Z,23.63
2023-05-25T07:08:22.036Z,25.03
2023-05-25T07:10:50.103Z,23.83
2023-05-25T07:13:16.781Z,19.10
2023-05-25T07:15:43.646Z,28.27
2023-05-25T07:18:11.689Z,25.37
2023-05-25T07:20:41.370Z,20.37
2023-05-25T07:23:08.613Z,21.77
2023-05-25T07:25:35.652Z,21.03
2023-05-25T07:28:01.927Z,21.90
2023-05-25T07:30:28.845Z,23.77
2023-05-25T07:32:56.218Z,20.57
2023-05-25T07:35:22.478Z,19.23
2023-05-25T07:37:56.911Z,20.73
2023-05-25T07:40:23.353Z,22.07
2023-05-25T07:42:49.740Z,19.37
2023-05-25T07:45:16.306Z,21.07
2023-05-25T07:47:42.675Z,18.20
2023-05-25T07:50:09.840Z,18.47
2023-05-25T07:52:37.525Z,25.13
2023-05-25T07:55:05.785Z,21.73
2023-05-25T07:57:32.232Z,20.13
2023-05-25T07:59:59.066Z,20.70
2023-05-25T08:02:25.719Z,20.10
2023-05-25T08:04:52.199Z,18.13
2023-05-25T08:07:18.882Z,18.23
2023-05-25T08:09:45.214Z,19.67
2023-05-25T08:12:27.059Z,22.83
2023-05-25T08:14:58.444Z,16.80
2023-05-25T08:17:24.828Z,22.27
2023-05-25T08:19:51.202Z,26.57
2023-05-25T08:22:17.445Z,25.37
2023-05-25T08:24:43.718Z,25.00
2023-05-25T08:27:10.098Z,20.27
2023-05-25T08:29:37.138Z,20.27
2023-05-25T08:32:03.599Z,20.47
2023-05-25T08:34:29.943Z,17.40
2023-05-25T08:36:57.100Z,17.60
2023-05-25T08:39:23.357Z,22.63
2023-05-25T08:41:50.340Z,16.87
2023-05-25T08:44:16.808Z,22.07
2023-05-25T08:46:47.147Z,18.17
2023-05-25T08:49:14.651Z,16.73
2023-05-25T08:51:43.254Z,17.10
2023-05-25T08:54:10.655Z,18.60
2023-05-25T08:56:41.880Z,18.33
2023-05-25T08:59:13.643Z,15.60
2023-05-25T09:01:45.977Z,18.47
2023-05-25T09:04:13.751Z,15.77
2023-05-25T09:06:40.340Z,14.37
2023-05-25T09:09:07.243Z,17.93
2023-05-25T09:11:39.603Z,18.53
2023-05-25T09:14:07.763Z,15.57
2023-05-25T09:16:34.185Z,17.33
2023-05-25T09:19:01.853Z,14.67
2023-05-25T09:21:28.229Z,13.03
2023-05-25T09:23:54.772Z,9.70
2023-05-25T09:26:21.169Z,12.83
2023-05-25T09:28:48.227Z,15.83
2023-05-25T09:31:14.853Z,15.37
2023-05-25T09:33:42.014Z,14.60
2023-05-25T09:36:09.196Z,14.37
2023-05-25T09:38:35.987Z,17.73
2023-05-25T09:41:03.868Z,15.10
2023-05-25T09:43:41.745Z,17.73
2023-05-25T09:46:11.729Z,14.70
2023-05-25T09:48:38.146Z,18.17
2023-05-25T09:51:06.357Z,25.13
2023-05-25T09:53:33.302Z,12.43
2023-05-25T09:56:01.180Z,18.00
2023-05-25T09:58:28.329Z,11.57
2023-05-25T10:00:54.900Z,9.93
2023-05-25T10:03:21.245Z,14.87
2023-05-25T10:05:47.861Z,14.83
2023-05-25T10:08:14.336Z,7.33
2023-05-25T10:10:42.180Z,16.13
2023-05-25T10:13:08.533Z,9.07
2023-05-25T10:15:36.019Z,7.47
2023-05-25T10:18:03.179Z,12.10
2023-05-25T10:20:32.137Z,10.67
2023-05-25T10:23:05.266Z,14.97
2023-05-25T10:25:34.447Z,11.60
2023-05-25T10:28:04.413Z,9.37
2023-05-25T10:30:31.182Z,12.90
2023-05-25T10:32:57.552Z,10.80
2023-05-25T10:35:24.299Z,16.50
2023-05-25T10:37:51.821Z,16.50
2023-05-25T10:40:19.143Z,14.77
2023-05-25T10:42:45.849Z,13.20
2023-05-25T10:45:13.011Z,8.20
2023-05-25T10:47:41.352Z,9.17
2023-05-25T10:50:18.807Z,11.60
2023-05-25T10:52:45.108Z,10.43
2023-05-25T10:55:11.804Z,11.13
2023-05-25T10:57:38.037Z,43.50
2023-05-25T11:00:05.884Z,9.90
2023-05-25T11:02:48.218Z,10.37
2023-05-25T11:05:34.926Z,11.93
2023-05-25T11:08:02.456Z,8.30
2023-05-25T11:10:52.106Z,11.43
2023-05-25T11:13:36.981Z,8.87
2023-05-25T11:16:14.494Z,5.63
2023-05-25T11:18:42.769Z,7.97
2023-05-25T11:21:13.409Z,9.80
2023-05-25T11:23:52.136Z,8.73
2023-05-25T11:26:21.196Z,12.17
2023-05-25T11:28:48.139Z,10.83
2023-05-25T11:31:16.334Z,10.80
2023-05-25T11:33:44.440Z,5.70
2023-05-25T11:36:10.858Z,7.90
2023-05-25T11:38:50.036Z,10.63
2023-05-25T11:41:28.809Z,10.80
2023-05-25T11:43:55.621Z,13.83
2023-05-25T11:46:22.071Z,10.73
2023-05-25T11:48:51.560Z,14.70
2023-05-25T11:51:18.690Z,9.23
2023-05-25T11:53:45.481Z,9.63
2023-05-25T11:56:15.996Z,10.60
2023-05-25T11:58:50.866Z,12.57
2023-05-25T12:01:19.135Z,10.57
2023-05-25T12:03:46.698Z,10.87
2023-05-25T12:06:26.635Z,10.13
2023-05-25T12:08:52.894Z,15.27
2023-05-25T12:11:19.791Z,13.73
2023-05-25T12:13:46.545Z,8.37
2023-05-25T12:16:12.863Z,11.73
2023-05-25T12:18:39.190Z,10.00
2023-05-25T12:21:07.452Z,8.90
2023-05-25T12:23:35.531Z,14.47
2023-05-25T12:26:08.195Z,11.53
2023-05-25T12:28:34.414Z,8.30
2023-05-25T12:31:22.256Z,8.13
2023-05-25T12:34:05.052Z,9.33
2023-05-25T12:36:47.718Z,8.77
2023-05-25T12:39:16.796Z,10.03
2023-05-25T12:41:48.155Z,7.63
2023-05-25T12:44:24.503Z,12.00
2023-05-25T12:46:51.802Z,11.70
2023-05-25T12:49:29.205Z,9.47
2023-05-25T12:51:55.805Z,10.40
2023-05-25T12:54:44.152Z,10.03
2023-05-25T12:57:12.425Z,12.80
2023-05-25T12:59:40.083Z,11.10
2023-05-25T13:02:07.437Z,8.70
2023-05-25T13:04:34.011Z,9.03
2023-05-25T13:07:00.679Z,9.87
2023-05-25T13:09:27.295Z,8.93
2023-05-25T13:11:54.879Z,11.37
2023-05-25T13:14:23.230Z,10.20
2023-05-25T13:16:49.902Z,11.03
2023-05-25T13:19:16.360Z,6.93
2023-05-25T13:21:42.665Z,7.13
2023-05-25T13:24:08.867Z,9.77
2023-05-25T13:26:35.154Z,12.87
2023-05-25T13:29:02.062Z,11.97
2023-05-25T13:31:28.323Z,7.97
2023-05-25T13:33:54.607Z,12.63
2023-05-25T13:36:20.939Z,10.50
2023-05-25T13:38:47.275Z,10.37
2023-05-25T13:41:13.723Z,9.60
2023-05-25T13:43:40.448Z,13.70
2023-05-25T13:46:08.824Z,10.37
2023-05-25T13:48:38.160Z,8.40
2023-05-25T13:51:04.660Z,10.67
2023-05-25T13:53:31.235Z,8.53
2023-05-25T13:55:57.460Z,9.80
2023-05-25T13:58:24.176Z,9.40
2023-05-25T14:00:50.767Z,6.97
2023-05-25T14:03:17.803Z,9.73
2023-05-25T14:05:44.345Z,8.47
2023-05-25T14:08:12.035Z,5.23
2023-05-25T14:10:38.575Z,12.80
2023-05-25T14:13:04.865Z,13.03
2023-05-25T14:15:31.215Z,10.53
2023-05-25T14:17:57.733Z,12.93
2023-05-25T14:20:25.661Z,10.07
2023-05-25T14:22:52.265Z,10.43
2023-05-25T14:25:18.610Z,10.13
2023-05-25T14:27:45.102Z,13.30
2023-05-25T14:30:11.906Z,12.00
2023-05-25T14:32:38.256Z,9.87
2023-05-25T14:35:05.417Z,14.10
2023-05-25T14:37:32.288Z,9.57
2023-05-25T14:39:59.874Z,6.43
2023-05-25T14:42:26.334Z,8.40
2023-05-25T14:44:52.704Z,9.20
2023-05-25T14:47:18.965Z,9.73
2023-05-25T14:49:45.222Z,9.90
2023-05-25T14:52:11.703Z,7.93
2023-05-25T14:54:43.844Z,12.50
2023-05-25T14:57:10.534Z,9.07
2023-05-25T14:59:36.947Z,8.97
2023-05-25T15:02:03.628Z,6.43
2023-05-25T15:04:30.921Z,9.57
2023-05-25T15:06:57.540Z,6.30
2023-05-25T15:09:23.807Z,10.67
2023-05-25T15:11:50.826Z,6.97
2023-05-25T15:14:17.154Z,9.13
2023-05-25T15:16:44.312Z,11.57
2023-05-25T15:19:12.638Z,8.23
2023-05-25T15:21:40.228Z,14.17
2023-05-25T15:24:06.672Z,10.33
2023-05-25T15:26:32.892Z,11.43
2023-05-25T15:28:59.958Z,13.73
2023-05-25T15:31:26.244Z,11.00
2023-05-25T15:33:58.209Z,10.77
2023-05-25T15:36:24.756Z,7.93
2023-05-25T15:38:50.949Z,9.03
2023-05-25T15:41:17.779Z,8.43
2023-05-25T15:43:50.865Z,11.40
2023-05-25T15:46:17.807Z,9.07
2023-05-25T15:48:44.157Z,7.67
2023-05-25T15:51:10.544Z,11.27
2023-05-25T15:53:36.751Z,10.47
2023-05-25T15:56:03.014Z,9.57
2023-05-25T15:58:30.747Z,9.37
2023-05-25T16:00:56.986Z,11.90
2023-05-25T16:03:24.057Z,9.73
2023-05-25T16:05:50.468Z,9.23
2023-05-25T16:08:16.902Z,10.60
2023-05-25T16:10:43.217Z,12.07
2023-05-25T16:13:09.739Z,7.07
2023-05-25T16:15:36.174Z,9.03
2023-05-25T16:18:02.523Z,10.83
2023-05-25T16:20:29.720Z,8.03
2023-05-25T16:22:56.085Z,12.13
2023-05-25T16:25:22.625Z,7.80
2023-05-25T16:27:49.078Z,10.73
2023-05-25T16:30:17.871Z,9.03
2023-05-25T16:32:44.351Z,7.10
2023-05-25T16:35:13.100Z,10.63
2023-05-25T16:37:40.036Z,15.20
2023-05-25T16:40:07.951Z,9.27
2023-05-25T16:42:34.539Z,11.53
2023-05-25T16:45:00.780Z,12.77
2023-05-25T16:47:27.032Z,10.83
2023-05-25T16:49:53.464Z,7.77
2023-05-25T16:52:19.859Z,10.33
2023-05-25T16:54:46.823Z,11.83
2023-05-25T16:57:13.026Z,4.87
2023-05-25T16:59:39.483Z,8.27
2023-05-25T17:02:06.465Z,8.43
2023-05-25T17:04:32.791Z,10.73
2023-05-25T17:06:59.074Z,10.20
2023-05-25T17:09:25.381Z,7.67
2023-05-25T17:11:53.694Z,11.07
2023-05-25T17:14:20.885Z,8.73
2023-05-25T17:16:47.391Z,9.10
2023-05-25T17:19:14.522Z,8.80
2023-05-25T17:21:41.240Z,7.50
2023-05-25T17:24:07.939Z,9.07
2023-05-25T17:26:34.245Z,18.70
2023-05-25T17:29:01.417Z,8.03
2023-05-25T17:31:28.223Z,10.80
2023-05-25T17:33:54.883Z,8.70
2023-05-25T17:36:22.293Z,9.07
2023-05-25T17:38:48.757Z,9.13
2023-05-25T17:41:15.183Z,13.37
2023-05-25T17:43:41.715Z,8.17
2023-05-25T17:46:08.833Z,10.13
2023-05-25T17:48:36.038Z,8.93
2023-05-25T17:51:02.556Z,9.80
2023-05-25T17:53:28.875Z,8.90
2023-05-25T17:55:55.368Z,8.27
2023-05-25T17:58:21.725Z,10.03
2023-05-25T18:00:48.181Z,11.07
2023-05-25T18:03:15.312Z,8.13
2023-05-25T18:05:41.681Z,9.57
2023-05-25T18:08:08.027Z,9.83
2023-05-25T18:10:34.926Z,8.47
2023-05-25T18:13:01.184Z,9.87
2023-05-25T18:15:27.567Z,7.90
2023-05-25T18:17:54.146Z,11.17
2023-05-25T18:20:21.395Z,11.33
2023-05-25T18:22:47.861Z,11.40
2023-05-25T18:25:14.158Z,12.07
2023-05-25T18:27:40.444Z,8.93
2023-05-25T18:30:07.973Z,7.90
2023-05-25T18:32:34.453Z,12.37
2023-05-25T18:35:00.836Z,15.03
2023-05-25T18:37:28.628Z,10.87
2023-05-25T18:39:54.862Z,12.43
2023-05-25T18:42:21.162Z,8.13
2023-05-25T18:44:47.441Z,10.27
2023-05-25T18:47:13.853Z,10.53
2023-05-25T18:49:40.233Z,6.83
2023-05-25T18:52:07.588Z,11.33
2023-05-25T18:54:34.742Z,10.80
2023-05-25T18:57:02.277Z,9.87
2023-05-25T18:59:28.820Z,7.23
2023-05-25T19:01:55.350Z,10.63
2023-05-25T19:04:21.705Z,10.10
2023-05-25T19:06:48.242Z,11.53
2023-05-25T19:09:14.491Z,18.13
2023-05-25T19:11:41.437Z,8.40
2023-05-25T19:14:07.732Z,13.33
2023-05-25T19:16:34.480Z,14.50
2023-05-25T19:19:00.835Z,8.70
2023-05-25T19:21:27.207Z,14.17
2023-05-25T19:23:54.051Z,10.33
2023-05-25T19:26:20.373Z,11.07
2023-05-25T19:28:47.349Z,10.63
2023-05-25T19:31:13.654Z,7.80
2023-05-25T19:33:40.221Z,11.53
2023-05-25T19:36:06.714Z,6.27
2023-05-25T19:38:41.107Z,13.33
2023-05-25T19:41:08.546Z,11.23
2023-05-25T19:43:35.313Z,7.40
2023-05-25T19:46:02.306Z,12.83
2023-05-25T19:48:28.736Z,11.33
2023-05-25T19:50:55.083Z,6.97
2023-05-25T19:53:21.392Z,12.17
2023-05-25T19:55:47.761Z,10.27
2023-05-25T19:58:14.021Z,8.63
2023-05-25T20:00:40.524Z,8.80
2023-05-25T20:03:07.540Z,9.13
2023-05-25T20:05:33.857Z,10.70
2023-05-25T20:08:00.172Z,9.03
2023-05-25T20:10:26.643Z,10.83
2023-05-25T20:12:52.908Z,8.83
2023-05-25T20:15:19.382Z,11.97
2023-05-25T20:17:45.712Z,8.13
2023-05-25T20:20:12.787Z,10.40
2023-05-25T20:22:39.097Z,9.53
2023-05-25T20:25:06.235Z,9.30
2023-05-25T20:27:32.555Z,8.77
2023-05-25T20:29:58.806Z,8.53
2023-05-25T20:32:25.232Z,9.43
2023-05-25T20:34:51.442Z,12.80
2023-05-25T20:37:18.306Z,13.03
2023-05-25T20:39:45.059Z,11.30
2023-05-25T20:42:13.202Z,10.97
2023-05-25T20:44:39.700Z,9.70
2023-05-25T20:47:06.067Z,11.33
2023-05-25T20:49:32.316Z,9.57
2023-05-25T20:51:58.612Z,10.90
2023-05-25T20:54:25.492Z,9.47
2023-05-25T20:56:52.641Z,11.80
2023-05-25T20:59:18.843Z,10.20
2023-05-25T21:01:45.221Z,8.97
2023-05-25T21:04:11.611Z,10.73
2023-05-25T21:06:37.861Z,14.47
2023-05-25T21:09:04.226Z,12.10
2023-05-25T21:11:31.090Z,11.83
2023-05-25T21:13:57.317Z,9.40
2023-05-25T21:16:23.665Z,10.20
2023-05-25T21:18:50.179Z,9.20
2023-05-25T21:21:16.847Z,7.73
2023-05-25T21:23:43.097Z,8.83
2023-05-25T21:26:09.496Z,13.27
2023-05-25T21:28:36.441Z,15.90
2023-05-25T21:31:02.784Z,10.97
2023-05-25T21:33:30.174Z,11.00
2023-05-25T21:35:56.438Z,12.03
2023-05-25T21:38:22.670Z,15.50
2023-05-25T21:40:48.960Z,18.20
2023-05-25T21:43:15.208Z,11.93
2023-05-25T21:45:42.172Z,15.90
2023-05-25T21:48:08.486Z,14.87
2023-05-25T21:50:35.821Z,11.27
2023-05-25T21:53:02.085Z,14.83
2023-05-25T21:55:28.313Z,14.93
2023-05-25T21:57:54.691Z,15.03
2023-05-25T22:00:22.678Z,14.73
2023-05-25T22:02:51.641Z,21.90
2023-05-25T22:05:18.120Z,15.27
2023-05-25T22:07:44.324Z,13.83
2023-05-25T22:10:10.923Z,11.93
2023-05-25T22:12:37.220Z,12.43
2023-05-25T22:15:04.559Z,14.27
2023-05-25T22:17:30.843Z,21.07
2023-05-25T22:20:07.242Z,17.17
2023-05-25T22:22:34.806Z,15.37
2023-05-25T22:25:01.283Z,15.00
2023-05-25T22:27:27.763Z,18.13
2023-05-25T22:29:54.014Z,16.73
2023-05-25T22:32:20.275Z,20.63
2023-05-25T22:34:47.038Z,14.20
2023-05-25T22:37:14.145Z,14.67
2023-05-25T22:39:40.377Z,19.53
2023-05-25T22:42:06.702Z,18.77
2023-05-25T22:44:34.318Z,18.50
2023-05-25T22:47:00.565Z,19.50
2023-05-25T22:49:26.817Z,16.97
2023-05-25T22:51:53.019Z,16.60
2023-05-25T22:54:19.971Z,28.00
2023-05-25T22:56:46.250Z,15.63
2023-05-25T22:59:13.045Z,28.57
2023-05-25T23:01:39.290Z,16.33
2023-05-25T23:04:05.698Z,21.73
2023-05-25T23:06:32.181Z,21.87
2023-05-25T23:08:58.446Z,18.83
2023-05-25T23:11:26.346Z,20.27
2023-05-25T23:13:53.903Z,16.37
2023-05-25T23:16:20.297Z,19.97
2023-05-25T23:18:46.615Z,21.67
2023-05-25T23:21:12.861Z,18.97
2023-05-25T23:23:39.047Z,23.00
2023-05-25T23:26:05.404Z,21.63
2023-05-25T23:28:32.327Z,21.73
2023-05-25T23:30:58.550Z,27.37
2023-05-25T23:33:24.879Z,34.43
2023-05-25T23:35:51.216Z,25.13
2023-05-25T23:38:17.572Z,26.67
2023-05-25T23:40:44.048Z,25.77
2023-05-25T23:43:10.385Z,27.53
2023-05-25T23:45:37.262Z,33.43
2023-05-25T23:48:03.734Z,23.43
2023-05-25T23:50:30.115Z,26.93
2023-05-25T23:52:56.417Z,28.07
2023-05-25T23:55:22.983Z,23.93
2023-05-25T23:57:49.367Z,24.87
